sensor_id;sensor_type;location;lat;lon;timestamp;P1;durP1;ratioP1;P2;durP2;ratioP2
10120;SDS011;5100;45.176;5.714;2023-02-01T00:01:44;17.07;;;14.10;;
10120;SDS011;5100;45.176;5.714;2023-02-01T00:04:11;14.53;;;11.93;;
10120;SDS011;5100;45.176;5.714;2023-02-01T00:06:38;16.57;;;12.13;;
10120;SDS011;5100;45.176;5.714;2023-02-01T00:09:04;14.33;;;11.97;;
10120;SDS011;5100;45.176;5.714;2023-02-01T00:11:30;18.37;;;14.07;;
10120;SDS011;5100;45.176;5.714;2023-02-01T00:13:56;15.17;;;12.20;;
10120;SDS011;5100;45.176;5.714;2023-02-01T00:16:23;19.13;;;11.80;;
10120;SDS011;5100;45.176;5.714;2023-02-01T00:18:52;16.27;;;12.77;;
10120;SDS011;5100;45.176;5.714;2023-02-01T00:21:26;17.00;;;12.33;;
10120;SDS011;5100;45.176;5.714;2023-02-01T00:23:52;16.83;;;12.07;;
10120;SDS011;5100;45.176;5.714;2023-02-01T00:26:19;15.80;;;12.43;;
10120;SDS011;5100;45.176;5.714;2023-02-01T00:29:03;14.17;;;11.50;;
10120;SDS011;5100;45.176;5.714;2023-02-01T00:31:31;13.80;;;11.90;;
10120;SDS011;5100;45.176;5.714;2023-02-01T00:33:57;12.87;;;11.10;;
10120;SDS011;5100;45.176;5.714;2023-02-01T00:36:24;13.87;;;11.00;;
10120;SDS011;5100;45.176;5.714;2023-02-01T00:38:50;15.07;;;11.33;;
10120;SDS011;5100;45.176;5.714;2023-02-01T00:41:17;14.17;;;11.73;;
10120;SDS011;5100;45.176;5.714;2023-02-01T00:43:45;14.13;;;11.53;;
10120;SDS011;5100;45.176;5.714;2023-02-01T00:46:12;14.57;;;11.40;;
10120;SDS011;5100;45.176;5.714;2023-02-01T00:48:39;15.73;;;11.87;;
10120;SDS011;5100;45.176;5.714;2023-02-01T00:51:07;15.93;;;12.47;;
10120;SDS011;5100;45.176;5.714;2023-02-01T00:53:35;14.50;;;12.10;;
10120;SDS011;5100;45.176;5.714;2023-02-01T00:56:01;14.53;;;11.90;;
10120;SDS011;5100;45.176;5.714;2023-02-01T00:58:28;14.60;;;12.23;;
10120;SDS011;5100;45.176;5.714;2023-02-01T01:01:04;12.90;;;11.20;;
10120;SDS011;5100;45.176;5.714;2023-02-01T01:03:34;15.70;;;12.80;;
10120;SDS011;5100;45.176;5.714;2023-02-01T01:06:03;14.87;;;12.30;;
10120;SDS011;5100;45.176;5.714;2023-02-01T01:08:31;16.33;;;12.80;;
10120;SDS011;5100;45.176;5.714;2023-02-01T01:10:58;13.93;;;12.17;;
10120;SDS011;5100;45.176;5.714;2023-02-01T01:13:24;14.93;;;12.17;;
10120;SDS011;5100;45.176;5.714;2023-02-01T01:15:50;16.60;;;12.57;;
10120;SDS011;5100;45.176;5.714;2023-02-01T01:18:16;18.40;;;12.63;;
10120;SDS011;5100;45.176;5.714;2023-02-01T01:20:42;15.07;;;12.13;;
10120;SDS011;5100;45.176;5.714;2023-02-01T01:23:09;16.37;;;12.37;;
10120;SDS011;5100;45.176;5.714;2023-02-01T01:25:39;16.60;;;13.03;;
10120;SDS011;5100;45.176;5.714;2023-02-01T01:28:05;14.27;;;12.23;;
10120;SDS011;5100;45.176;5.714;2023-02-01T01:30:33;14.73;;;12.23;;
10120;SDS011;5100;45.176;5.714;2023-02-01T01:33:00;14.53;;;12.43;;
10120;SDS011;5100;45.176;5.714;2023-02-01T01:35:28;18.83;;;13.00;;
10120;SDS011;5100;45.176;5.714;2023-02-01T01:37:57;14.17;;;12.20;;
10120;SDS011;5100;45.176;5.714;2023-02-01T01:40:25;14.53;;;12.53;;
10120;SDS011;5100;45.176;5.714;2023-02-01T01:42:52;15.37;;;12.40;;
10120;SDS011;5100;45.176;5.714;2023-02-01T01:45:21;16.03;;;12.77;;
10120;SDS011;5100;45.176;5.714;2023-02-01T01:47:52;15.53;;;13.03;;
10120;SDS011;5100;45.176;5.714;2023-02-01T01:50:32;16.13;;;12.83;;
10120;SDS011;5100;45.176;5.714;2023-02-01T01:53:03;16.77;;;13.00;;
10120;SDS011;5100;45.176;5.714;2023-02-01T01:55:34;15.10;;;12.53;;
10120;SDS011;5100;45.176;5.714;2023-02-01T01:58:07;16.30;;;12.50;;
10120;SDS011;5100;45.176;5.714;2023-02-01T02:00:35;16.90;;;12.47;;
10120;SDS011;5100;45.176;5.714;2023-02-01T02:03:13;15.53;;;12.33;;
10120;SDS011;5100;45.176;5.714;2023-02-01T02:05:52;15.63;;;12.17;;
10120;SDS011;5100;45.176;5.714;2023-02-01T02:08:21;15.40;;;12.70;;
10120;SDS011;5100;45.176;5.714;2023-02-01T02:10:51;14.07;;;12.57;;
10120;SDS011;5100;45.176;5.714;2023-02-01T02:13:34;17.50;;;13.20;;
10120;SDS011;5100;45.176;5.714;2023-02-01T02:22:12;14.63;;;12.90;;
10120;SDS011;5100;45.176;5.714;2023-02-01T02:27:21;15.93;;;12.47;;
10120;SDS011;5100;45.176;5.714;2023-02-01T02:30:01;18.30;;;14.10;;
10120;SDS011;5100;45.176;5.714;2023-02-01T02:38:22;15.37;;;12.63;;
10120;SDS011;5100;45.176;5.714;2023-02-01T02:46:37;16.77;;;14.20;;
10120;SDS011;5100;45.176;5.714;2023-02-01T02:49:29;15.93;;;12.37;;
10120;SDS011;5100;45.176;5.714;2023-02-01T02:52:09;15.83;;;12.53;;
10120;SDS011;5100;45.176;5.714;2023-02-01T02:54:59;15.33;;;12.90;;
10120;SDS011;5100;45.176;5.714;2023-02-01T02:57:34;17.93;;;14.67;;
10120;SDS011;5100;45.176;5.714;2023-02-01T03:00:22;17.80;;;13.53;;
10120;SDS011;5100;45.176;5.714;2023-02-01T03:03:12;20.07;;;13.77;;
10120;SDS011;5100;45.176;5.714;2023-02-01T03:05:57;16.90;;;13.50;;
10120;SDS011;5100;45.176;5.714;2023-02-01T03:08:26;14.87;;;12.90;;
10120;SDS011;5100;45.176;5.714;2023-02-01T03:16:33;19.33;;;14.63;;
10120;SDS011;5100;45.176;5.714;2023-02-01T03:21:51;19.13;;;14.07;;
10120;SDS011;5100;45.176;5.714;2023-02-01T03:27:04;19.13;;;14.83;;
10120;SDS011;5100;45.176;5.714;2023-02-01T03:32:16;20.57;;;14.53;;
10120;SDS011;5100;45.176;5.714;2023-02-01T03:34:44;21.00;;;15.30;;
10120;SDS011;5100;45.176;5.714;2023-02-01T03:37:11;18.27;;;14.87;;
10120;SDS011;5100;45.176;5.714;2023-02-01T03:42:16;19.10;;;15.20;;
10120;SDS011;5100;45.176;5.714;2023-02-01T03:48:06;17.70;;;14.77;;
10120;SDS011;5100;45.176;5.714;2023-02-01T03:50:35;17.83;;;14.67;;
10120;SDS011;5100;45.176;5.714;2023-02-01T03:53:13;17.67;;;14.00;;
10120;SDS011;5100;45.176;5.714;2023-02-01T03:55:44;20.50;;;14.77;;
10120;SDS011;5100;45.176;5.714;2023-02-01T03:58:18;16.60;;;13.63;;
10120;SDS011;5100;45.176;5.714;2023-02-01T04:00:58;28.67;;;18.73;;
10120;SDS011;5100;45.176;5.714;2023-02-01T04:03:26;18.63;;;15.17;;
10120;SDS011;5100;45.176;5.714;2023-02-01T04:05:53;16.40;;;13.47;;
10120;SDS011;5100;45.176;5.714;2023-02-01T04:08:21;15.77;;;13.97;;
10120;SDS011;5100;45.176;5.714;2023-02-01T04:10:48;18.67;;;14.90;;
10120;SDS011;5100;45.176;5.714;2023-02-01T04:13:15;16.17;;;13.53;;
10120;SDS011;5100;45.176;5.714;2023-02-01T04:15:41;18.20;;;13.40;;
10120;SDS011;5100;45.176;5.714;2023-02-01T04:18:07;16.23;;;13.80;;
10120;SDS011;5100;45.176;5.714;2023-02-01T04:20:34;19.27;;;13.53;;
10120;SDS011;5100;45.176;5.714;2023-02-01T04:23:00;15.50;;;13.60;;
10120;SDS011;5100;45.176;5.714;2023-02-01T04:25:28;15.07;;;12.80;;
10120;SDS011;5100;45.176;5.714;2023-02-01T04:27:54;14.57;;;12.43;;
10120;SDS011;5100;45.176;5.714;2023-02-01T04:30:20;15.30;;;13.33;;
10120;SDS011;5100;45.176;5.714;2023-02-01T04:32:47;17.93;;;13.37;;
10120;SDS011;5100;45.176;5.714;2023-02-01T04:35:13;16.27;;;12.93;;
10120;SDS011;5100;45.176;5.714;2023-02-01T04:37:39;16.47;;;12.73;;
10120;SDS011;5100;45.176;5.714;2023-02-01T04:40:05;14.73;;;12.37;;
10120;SDS011;5100;45.176;5.714;2023-02-01T04:42:32;15.50;;;13.50;;
10120;SDS011;5100;45.176;5.714;2023-02-01T04:44:58;16.30;;;13.27;;
10120;SDS011;5100;45.176;5.714;2023-02-01T04:47:24;14.40;;;11.57;;
10120;SDS011;5100;45.176;5.714;2023-02-01T04:49:50;15.07;;;12.77;;
10120;SDS011;5100;45.176;5.714;2023-02-01T04:52:16;16.83;;;13.23;;
10120;SDS011;5100;45.176;5.714;2023-02-01T04:54:43;17.43;;;13.17;;
10120;SDS011;5100;45.176;5.714;2023-02-01T04:57:09;12.37;;;11.07;;
10120;SDS011;5100;45.176;5.714;2023-02-01T04:59:34;15.33;;;12.03;;
10120;SDS011;5100;45.176;5.714;2023-02-01T05:02:01;13.90;;;11.80;;
10120;SDS011;5100;45.176;5.714;2023-02-01T05:04:27;15.90;;;12.40;;
10120;SDS011;5100;45.176;5.714;2023-02-01T05:06:53;14.83;;;11.77;;
10120;SDS011;5100;45.176;5.714;2023-02-01T05:09:19;15.47;;;12.43;;
10120;SDS011;5100;45.176;5.714;2023-02-01T05:11:47;15.47;;;12.27;;
10120;SDS011;5100;45.176;5.714;2023-02-01T05:14:32;13.13;;;11.73;;
10120;SDS011;5100;45.176;5.714;2023-02-01T05:16:58;14.53;;;12.00;;
10120;SDS011;5100;45.176;5.714;2023-02-01T05:19:24;16.03;;;12.37;;
10120;SDS011;5100;45.176;5.714;2023-02-01T05:21:50;14.70;;;12.37;;
10120;SDS011;5100;45.176;5.714;2023-02-01T05:24:16;13.50;;;12.10;;
10120;SDS011;5100;45.176;5.714;2023-02-01T05:26:46;13.43;;;12.03;;
10120;SDS011;5100;45.176;5.714;2023-02-01T05:29:13;16.23;;;12.30;;
10120;SDS011;5100;45.176;5.714;2023-02-01T05:31:39;13.20;;;11.80;;
10120;SDS011;5100;45.176;5.714;2023-02-01T05:34:06;13.63;;;11.40;;
10120;SDS011;5100;45.176;5.714;2023-02-01T05:36:32;14.60;;;12.07;;
10120;SDS011;5100;45.176;5.714;2023-02-01T05:38:58;13.37;;;11.47;;
10120;SDS011;5100;45.176;5.714;2023-02-01T05:41:24;14.17;;;12.27;;
10120;SDS011;5100;45.176;5.714;2023-02-01T05:43:51;14.47;;;12.37;;
10120;SDS011;5100;45.176;5.714;2023-02-01T05:46:17;15.73;;;12.73;;
10120;SDS011;5100;45.176;5.714;2023-02-01T05:48:42;13.27;;;11.43;;
10120;SDS011;5100;45.176;5.714;2023-02-01T05:51:09;15.17;;;11.80;;
10120;SDS011;5100;45.176;5.714;2023-02-01T05:53:36;14.43;;;11.53;;
10120;SDS011;5100;45.176;5.714;2023-02-01T05:56:02;13.37;;;11.50;;
10120;SDS011;5100;45.176;5.714;2023-02-01T05:58:29;16.20;;;12.90;;
10120;SDS011;5100;45.176;5.714;2023-02-01T06:00:55;14.00;;;11.87;;
10120;SDS011;5100;45.176;5.714;2023-02-01T06:03:24;14.27;;;12.20;;
10120;SDS011;5100;45.176;5.714;2023-02-01T06:05:50;14.60;;;12.20;;
10120;SDS011;5100;45.176;5.714;2023-02-01T06:08:16;15.50;;;11.37;;
10120;SDS011;5100;45.176;5.714;2023-02-01T06:10:42;14.73;;;11.80;;
10120;SDS011;5100;45.176;5.714;2023-02-01T06:13:08;14.20;;;12.03;;
10120;SDS011;5100;45.176;5.714;2023-02-01T06:15:35;13.67;;;11.30;;
10120;SDS011;5100;45.176;5.714;2023-02-01T06:18:03;14.43;;;11.27;;
10120;SDS011;5100;45.176;5.714;2023-02-01T06:20:29;14.07;;;11.67;;
10120;SDS011;5100;45.176;5.714;2023-02-01T06:22:55;13.97;;;12.33;;
10120;SDS011;5100;45.176;5.714;2023-02-01T06:25:22;14.70;;;11.67;;
10120;SDS011;5100;45.176;5.714;2023-02-01T06:27:48;13.77;;;11.37;;
10120;SDS011;5100;45.176;5.714;2023-02-01T06:30:14;13.83;;;11.80;;
10120;SDS011;5100;45.176;5.714;2023-02-01T06:32:41;13.50;;;11.57;;
10120;SDS011;5100;45.176;5.714;2023-02-01T06:35:08;15.43;;;11.67;;
10120;SDS011;5100;45.176;5.714;2023-02-01T06:37:36;14.13;;;11.30;;
10120;SDS011;5100;45.176;5.714;2023-02-01T06:40:04;14.63;;;11.60;;
10120;SDS011;5100;45.176;5.714;2023-02-01T06:42:30;13.17;;;11.07;;
10120;SDS011;5100;45.176;5.714;2023-02-01T06:44:56;13.30;;;11.20;;
10120;SDS011;5100;45.176;5.714;2023-02-01T06:47:22;15.33;;;11.93;;
10120;SDS011;5100;45.176;5.714;2023-02-01T06:49:48;12.30;;;11.00;;
10120;SDS011;5100;45.176;5.714;2023-02-01T06:52:14;14.77;;;11.60;;
10120;SDS011;5100;45.176;5.714;2023-02-01T06:54:41;12.60;;;10.63;;
10120;SDS011;5100;45.176;5.714;2023-02-01T06:57:07;17.60;;;11.97;;
10120;SDS011;5100;45.176;5.714;2023-02-01T06:59:33;14.20;;;11.90;;
10120;SDS011;5100;45.176;5.714;2023-02-01T07:01:59;12.50;;;11.00;;
10120;SDS011;5100;45.176;5.714;2023-02-01T07:04:25;13.83;;;10.43;;
10120;SDS011;5100;45.176;5.714;2023-02-01T07:06:51;13.80;;;11.37;;
10120;SDS011;5100;45.176;5.714;2023-02-01T07:09:17;14.43;;;11.67;;
10120;SDS011;5100;45.176;5.714;2023-02-01T07:11:43;12.60;;;10.40;;
10120;SDS011;5100;45.176;5.714;2023-02-01T07:14:09;12.03;;;10.67;;
10120;SDS011;5100;45.176;5.714;2023-02-01T07:16:36;13.77;;;10.17;;
10120;SDS011;5100;45.176;5.714;2023-02-01T07:19:03;12.83;;;10.67;;
10120;SDS011;5100;45.176;5.714;2023-02-01T07:21:29;11.97;;;10.70;;
10120;SDS011;5100;45.176;5.714;2023-02-01T07:23:55;12.60;;;10.40;;
10120;SDS011;5100;45.176;5.714;2023-02-01T07:26:21;11.63;;;10.13;;
10120;SDS011;5100;45.176;5.714;2023-02-01T07:28:47;13.13;;;10.83;;
10120;SDS011;5100;45.176;5.714;2023-02-01T07:31:15;15.70;;;10.40;;
10120;SDS011;5100;45.176;5.714;2023-02-01T07:33:47;12.37;;;10.80;;
10120;SDS011;5100;45.176;5.714;2023-02-01T07:36:17;11.90;;;10.60;;
10120;SDS011;5100;45.176;5.714;2023-02-01T07:38:44;14.27;;;10.97;;
10120;SDS011;5100;45.176;5.714;2023-02-01T07:41:12;12.27;;;10.83;;
10120;SDS011;5100;45.176;5.714;2023-02-01T07:43:39;13.63;;;10.90;;
10120;SDS011;5100;45.176;5.714;2023-02-01T07:46:05;14.57;;;11.40;;
10120;SDS011;5100;45.176;5.714;2023-02-01T07:48:32;12.30;;;10.97;;
10120;SDS011;5100;45.176;5.714;2023-02-01T07:53:30;14.10;;;11.77;;
10120;SDS011;5100;45.176;5.714;2023-02-01T07:55:57;14.53;;;11.73;;
10120;SDS011;5100;45.176;5.714;2023-02-01T07:58:24;13.50;;;11.00;;
10120;SDS011;5100;45.176;5.714;2023-02-01T08:00:51;13.77;;;11.60;;
10120;SDS011;5100;45.176;5.714;2023-02-01T08:03:37;14.83;;;11.57;;
10120;SDS011;5100;45.176;5.714;2023-02-01T08:06:03;13.33;;;11.80;;
10120;SDS011;5100;45.176;5.714;2023-02-01T08:08:29;12.77;;;10.97;;
10120;SDS011;5100;45.176;5.714;2023-02-01T08:10:57;16.67;;;12.43;;
10120;SDS011;5100;45.176;5.714;2023-02-01T08:13:26;12.83;;;11.43;;
10120;SDS011;5100;45.176;5.714;2023-02-01T08:15:56;13.73;;;11.33;;
10120;SDS011;5100;45.176;5.714;2023-02-01T08:18:27;12.60;;;11.20;;
10120;SDS011;5100;45.176;5.714;2023-02-01T08:20:53;13.60;;;11.83;;
10120;SDS011;5100;45.176;5.714;2023-02-01T08:23:20;14.97;;;12.07;;
10120;SDS011;5100;45.176;5.714;2023-02-01T08:25:46;16.90;;;12.60;;
10120;SDS011;5100;45.176;5.714;2023-02-01T08:28:13;14.93;;;11.90;;
10120;SDS011;5100;45.176;5.714;2023-02-01T08:30:39;15.60;;;11.60;;
10120;SDS011;5100;45.176;5.714;2023-02-01T08:33:07;16.07;;;12.97;;
10120;SDS011;5100;45.176;5.714;2023-02-01T08:35:34;13.70;;;12.30;;
10120;SDS011;5100;45.176;5.714;2023-02-01T08:38:01;13.67;;;11.50;;
10120;SDS011;5100;45.176;5.714;2023-02-01T08:40:28;14.77;;;12.10;;
10120;SDS011;5100;45.176;5.714;2023-02-01T08:42:54;14.20;;;11.37;;
10120;SDS011;5100;45.176;5.714;2023-02-01T08:45:22;12.40;;;11.10;;
10120;SDS011;5100;45.176;5.714;2023-02-01T08:47:51;14.27;;;11.93;;
10120;SDS011;5100;45.176;5.714;2023-02-01T08:50:20;13.63;;;12.20;;
10120;SDS011;5100;45.176;5.714;2023-02-01T08:52:47;13.10;;;11.60;;
10120;SDS011;5100;45.176;5.714;2023-02-01T08:55:13;12.23;;;10.97;;
10120;SDS011;5100;45.176;5.714;2023-02-01T08:57:40;15.30;;;11.97;;
10120;SDS011;5100;45.176;5.714;2023-02-01T09:00:07;12.90;;;10.77;;
10120;SDS011;5100;45.176;5.714;2023-02-01T09:02:38;13.33;;;11.43;;
10120;SDS011;5100;45.176;5.714;2023-02-01T09:05:04;14.37;;;11.50;;
10120;SDS011;5100;45.176;5.714;2023-02-01T09:07:30;13.40;;;11.73;;
10120;SDS011;5100;45.176;5.714;2023-02-01T09:09:57;12.83;;;10.73;;
10120;SDS011;5100;45.176;5.714;2023-02-01T09:12:27;15.27;;;11.67;;
10120;SDS011;5100;45.176;5.714;2023-02-01T09:14:55;13.07;;;11.47;;
10120;SDS011;5100;45.176;5.714;2023-02-01T09:17:22;13.63;;;11.30;;
10120;SDS011;5100;45.176;5.714;2023-02-01T09:19:48;14.40;;;10.97;;
10120;SDS011;5100;45.176;5.714;2023-02-01T09:22:14;16.50;;;11.17;;
10120;SDS011;5100;45.176;5.714;2023-02-01T09:24:41;14.83;;;11.17;;
10120;SDS011;5100;45.176;5.714;2023-02-01T09:27:07;13.40;;;11.47;;
10120;SDS011;5100;45.176;5.714;2023-02-01T09:29:33;14.00;;;10.77;;
10120;SDS011;5100;45.176;5.714;2023-02-01T09:32:00;13.90;;;11.30;;
10120;SDS011;5100;45.176;5.714;2023-02-01T09:34:26;14.30;;;11.77;;
10120;SDS011;5100;45.176;5.714;2023-02-01T09:36:52;13.40;;;11.33;;
10120;SDS011;5100;45.176;5.714;2023-02-01T09:39:18;12.77;;;10.37;;
10120;SDS011;5100;45.176;5.714;2023-02-01T09:41:59;12.13;;;10.80;;
10120;SDS011;5100;45.176;5.714;2023-02-01T09:47:18;12.33;;;10.93;;
10120;SDS011;5100;45.176;5.714;2023-02-01T09:49:49;15.03;;;11.10;;
10120;SDS011;5100;45.176;5.714;2023-02-01T09:52:42;13.20;;;10.13;;
10120;SDS011;5100;45.176;5.714;2023-02-01T09:55:16;12.63;;;10.47;;
10120;SDS011;5100;45.176;5.714;2023-02-01T09:57:49;15.23;;;10.70;;
10120;SDS011;5100;45.176;5.714;2023-02-01T10:00:25;13.23;;;11.33;;
10120;SDS011;5100;45.176;5.714;2023-02-01T10:02:55;15.97;;;11.40;;
10120;SDS011;5100;45.176;5.714;2023-02-01T10:20:52;19.23;;;12.57;;
10120;SDS011;5100;45.176;5.714;2023-02-01T10:26:21;13.23;;;11.60;;
10120;SDS011;5100;45.176;5.714;2023-02-01T10:28:50;11.93;;;9.50;;
10120;SDS011;5100;45.176;5.714;2023-02-01T10:31:17;9.53;;;8.57;;
10120;SDS011;5100;45.176;5.714;2023-02-01T10:33:47;11.80;;;9.70;;
10120;SDS011;5100;45.176;5.714;2023-02-01T10:36:21;14.77;;;10.00;;
10120;SDS011;5100;45.176;5.714;2023-02-01T10:38:53;11.93;;;9.53;;
10120;SDS011;5100;45.176;5.714;2023-02-01T10:41:20;10.77;;;9.10;;
10120;SDS011;5100;45.176;5.714;2023-02-01T10:43:50;13.83;;;10.07;;
10120;SDS011;5100;45.176;5.714;2023-02-01T10:46:20;12.33;;;9.70;;
10120;SDS011;5100;45.176;5.714;2023-02-01T10:48:48;13.27;;;10.17;;
10120;SDS011;5100;45.176;5.714;2023-02-01T10:53:50;15.83;;;9.80;;
10120;SDS011;5100;45.176;5.714;2023-02-01T10:56:25;11.50;;;9.50;;
10120;SDS011;5100;45.176;5.714;2023-02-01T10:58:59;13.57;;;8.33;;
10120;SDS011;5100;45.176;5.714;2023-02-01T11:01:28;9.93;;;7.90;;
10120;SDS011;5100;45.176;5.714;2023-02-01T11:03:59;10.57;;;8.00;;
10120;SDS011;5100;45.176;5.714;2023-02-01T11:06:27;10.50;;;8.00;;
10120;SDS011;5100;45.176;5.714;2023-02-01T11:09:00;8.23;;;7.40;;
10120;SDS011;5100;45.176;5.714;2023-02-01T11:11:33;8.43;;;6.90;;
10120;SDS011;5100;45.176;5.714;2023-02-01T11:16:49;8.47;;;7.50;;
10120;SDS011;5100;45.176;5.714;2023-02-01T11:19:21;9.30;;;7.10;;
10120;SDS011;5100;45.176;5.714;2023-02-01T11:21:53;10.87;;;7.70;;
10120;SDS011;5100;45.176;5.714;2023-02-01T11:26:50;12.63;;;8.50;;
10120;SDS011;5100;45.176;5.714;2023-02-01T11:29:20;9.83;;;8.80;;
10120;SDS011;5100;45.176;5.714;2023-02-01T11:31:54;11.33;;;9.70;;
10120;SDS011;5100;45.176;5.714;2023-02-01T11:34:24;12.07;;;8.40;;
10120;SDS011;5100;45.176;5.714;2023-02-01T11:37:15;11.97;;;8.67;;
10120;SDS011;5100;45.176;5.714;2023-02-01T11:39:54;9.83;;;8.30;;
10120;SDS011;5100;45.176;5.714;2023-02-01T11:42:25;12.33;;;8.77;;
10120;SDS011;5100;45.176;5.714;2023-02-01T11:47:43;10.57;;;8.93;;
10120;SDS011;5100;45.176;5.714;2023-02-01T11:50:18;13.83;;;9.57;;
10120;SDS011;5100;45.176;5.714;2023-02-01T12:01:34;7.93;;;6.80;;
10120;SDS011;5100;45.176;5.714;2023-02-01T12:04:38;7.80;;;7.00;;
10120;SDS011;5100;45.176;5.714;2023-02-01T12:07:22;10.10;;;7.30;;
10120;SDS011;5100;45.176;5.714;2023-02-01T12:12:44;9.87;;;7.53;;
10120;SDS011;5100;45.176;5.714;2023-02-01T12:15:36;8.17;;;6.90;;
10120;SDS011;5100;45.176;5.714;2023-02-01T12:21:10;5.53;;;5.03;;
10120;SDS011;5100;45.176;5.714;2023-02-01T12:34:50;5.00;;;4.50;;
10120;SDS011;5100;45.176;5.714;2023-02-01T12:37:51;5.23;;;4.73;;
10120;SDS011;5100;45.176;5.714;2023-02-01T12:40:49;7.43;;;5.67;;
10120;SDS011;5100;45.176;5.714;2023-02-01T12:43:53;7.40;;;5.60;;
10120;SDS011;5100;45.176;5.714;2023-02-01T12:46:16;10.43;;;5.47;;
10120;SDS011;5100;45.176;5.714;2023-02-01T12:48:53;4.63;;;4.20;;
10120;SDS011;5100;45.176;5.714;2023-02-01T12:51:25;5.80;;;5.23;;
10120;SDS011;5100;45.176;5.714;2023-02-01T12:53:57;5.83;;;5.23;;
10120;SDS011;5100;45.176;5.714;2023-02-01T12:56:34;8.53;;;5.80;;
10120;SDS011;5100;45.176;5.714;2023-02-01T12:59:03;6.47;;;5.43;;
10120;SDS011;5100;45.176;5.714;2023-02-01T13:13:22;7.30;;;5.33;;
10120;SDS011;5100;45.176;5.714;2023-02-01T13:16:44;6.50;;;5.53;;
10120;SDS011;5100;45.176;5.714;2023-02-01T13:19:42;8.10;;;5.93;;
10120;SDS011;5100;45.176;5.714;2023-02-01T13:21:46;9.57;;;6.37;;
10120;SDS011;5100;45.176;5.714;2023-02-01T13:27:05;8.27;;;6.93;;
10120;SDS011;5100;45.176;5.714;2023-02-01T13:29:31;7.97;;;7.13;;
10120;SDS011;5100;45.176;5.714;2023-02-01T13:32:19;7.03;;;6.33;;
10120;SDS011;5100;45.176;5.714;2023-02-01T13:34:56;8.43;;;7.23;;
10120;SDS011;5100;45.176;5.714;2023-02-01T13:43:14;4.07;;;2.20;;
10120;SDS011;5100;45.176;5.714;2023-02-01T13:45:49;3.73;;;1.93;;
10120;SDS011;5100;45.176;5.714;2023-02-01T13:48:21;2.43;;;1.80;;
10120;SDS011;5100;45.176;5.714;2023-02-01T13:50:59;2.53;;;1.80;;
10120;SDS011;5100;45.176;5.714;2023-02-01T13:53:27;2.47;;;1.90;;
10120;SDS011;5100;45.176;5.714;2023-02-01T13:55:57;2.30;;;2.10;;
10120;SDS011;5100;45.176;5.714;2023-02-01T13:58:33;3.60;;;2.00;;
10120;SDS011;5100;45.176;5.714;2023-02-01T14:03:53;4.37;;;2.10;;
10120;SDS011;5100;45.176;5.714;2023-02-01T14:11:37;4.27;;;2.17;;
10120;SDS011;5100;45.176;5.714;2023-02-01T14:16:43;7.40;;;3.60;;
10120;SDS011;5100;45.176;5.714;2023-02-01T14:19:25;3.00;;;2.70;;
10120;SDS011;5100;45.176;5.714;2023-02-01T14:21:53;3.30;;;2.87;;
10120;SDS011;5100;45.176;5.714;2023-02-01T14:24:25;2.70;;;2.23;;
10120;SDS011;5100;45.176;5.714;2023-02-01T14:26:53;3.20;;;2.10;;
10120;SDS011;5100;45.176;5.714;2023-02-01T14:29:32;2.20;;;2.03;;
10120;SDS011;5100;45.176;5.714;2023-02-01T14:32:16;3.57;;;2.30;;
10120;SDS011;5100;45.176;5.714;2023-02-01T14:42:17;5.57;;;2.20;;
10120;SDS011;5100;45.176;5.714;2023-02-01T14:44:48;2.77;;;2.37;;
10120;SDS011;5100;45.176;5.714;2023-02-01T14:49:58;2.87;;;2.27;;
10120;SDS011;5100;45.176;5.714;2023-02-01T14:52:30;2.53;;;2.33;;
10120;SDS011;5100;45.176;5.714;2023-02-01T14:55:03;2.93;;;2.47;;
10120;SDS011;5100;45.176;5.714;2023-02-01T14:57:33;2.67;;;2.47;;
10120;SDS011;5100;45.176;5.714;2023-02-01T15:00:20;3.13;;;2.20;;
10120;SDS011;5100;45.176;5.714;2023-02-01T15:02:47;2.43;;;2.23;;
10120;SDS011;5100;45.176;5.714;2023-02-01T15:05:25;7.17;;;2.67;;
10120;SDS011;5100;45.176;5.714;2023-02-01T15:08:03;2.30;;;2.17;;
10120;SDS011;5100;45.176;5.714;2023-02-01T15:10:43;3.60;;;2.73;;
10120;SDS011;5100;45.176;5.714;2023-02-01T15:13:19;4.37;;;2.50;;
10120;SDS011;5100;45.176;5.714;2023-02-01T15:16:20;2.83;;;2.43;;
10120;SDS011;5100;45.176;5.714;2023-02-01T15:18:41;2.87;;;2.57;;
10120;SDS011;5100;45.176;5.714;2023-02-01T15:23:44;4.97;;;2.40;;
10120;SDS011;5100;45.176;5.714;2023-02-01T15:26:27;3.90;;;2.63;;
10120;SDS011;5100;45.176;5.714;2023-02-01T15:28:56;3.20;;;2.90;;
10120;SDS011;5100;45.176;5.714;2023-02-01T15:31:34;2.70;;;2.50;;
10120;SDS011;5100;45.176;5.714;2023-02-01T15:34:02;2.70;;;2.50;;
10120;SDS011;5100;45.176;5.714;2023-02-01T15:36:28;3.40;;;3.10;;
10120;SDS011;5100;45.176;5.714;2023-02-01T15:41:47;5.00;;;2.63;;
10120;SDS011;5100;45.176;5.714;2023-02-01T15:44:20;2.90;;;2.70;;
10120;SDS011;5100;45.176;5.714;2023-02-01T15:46:52;3.23;;;2.80;;
10120;SDS011;5100;45.176;5.714;2023-02-01T15:52:11;3.87;;;3.03;;
10120;SDS011;5100;45.176;5.714;2023-02-01T15:54:46;2.70;;;2.50;;
10120;SDS011;5100;45.176;5.714;2023-02-01T15:57:31;2.63;;;2.43;;
10120;SDS011;5100;45.176;5.714;2023-02-01T16:00:01;2.50;;;2.30;;
10120;SDS011;5100;45.176;5.714;2023-02-01T16:02:50;2.80;;;2.60;;
10120;SDS011;5100;45.176;5.714;2023-02-01T16:07:57;3.20;;;2.80;;
10120;SDS011;5100;45.176;5.714;2023-02-01T16:10:45;3.93;;;2.37;;
10120;SDS011;5100;45.176;5.714;2023-02-01T16:13:13;3.13;;;2.50;;
10120;SDS011;5100;45.176;5.714;2023-02-01T16:15:40;3.40;;;2.50;;
10120;SDS011;5100;45.176;5.714;2023-02-01T16:18:08;6.60;;;2.57;;
10120;SDS011;5100;45.176;5.714;2023-02-01T16:20:35;2.83;;;2.17;;
10120;SDS011;5100;45.176;5.714;2023-02-01T16:23:03;2.73;;;2.40;;
10120;SDS011;5100;45.176;5.714;2023-02-01T16:25:29;3.17;;;2.20;;
10120;SDS011;5100;45.176;5.714;2023-02-01T16:27:56;2.50;;;2.30;;
10120;SDS011;5100;45.176;5.714;2023-02-01T16:30:22;2.53;;;2.00;;
10120;SDS011;5100;45.176;5.714;2023-02-01T16:32:53;4.37;;;2.20;;
10120;SDS011;5100;45.176;5.714;2023-02-01T16:35:22;4.30;;;2.10;;
10120;SDS011;5100;45.176;5.714;2023-02-01T16:37:52;4.13;;;2.20;;
10120;SDS011;5100;45.176;5.714;2023-02-01T16:40:18;3.13;;;2.00;;
10120;SDS011;5100;45.176;5.714;2023-02-01T16:42:47;4.37;;;2.40;;
10120;SDS011;5100;45.176;5.714;2023-02-01T16:45:16;2.57;;;2.10;;
10120;SDS011;5100;45.176;5.714;2023-02-01T16:47:44;3.87;;;2.30;;
10120;SDS011;5100;45.176;5.714;2023-02-01T16:50:17;4.77;;;2.50;;
10120;SDS011;5100;45.176;5.714;2023-02-01T16:52:46;2.90;;;2.40;;
10120;SDS011;5100;45.176;5.714;2023-02-01T16:55:16;6.90;;;2.60;;
10120;SDS011;5100;45.176;5.714;2023-02-01T16:57:45;5.43;;;2.20;;
10120;SDS011;5100;45.176;5.714;2023-02-01T17:00:11;2.47;;;2.27;;
10120;SDS011;5100;45.176;5.714;2023-02-01T17:02:38;4.23;;;2.30;;
10120;SDS011;5100;45.176;5.714;2023-02-01T17:05:05;4.03;;;2.53;;
10120;SDS011;5100;45.176;5.714;2023-02-01T17:07:31;4.40;;;2.67;;
10120;SDS011;5100;45.176;5.714;2023-02-01T17:09:57;3.77;;;2.67;;
10120;SDS011;5100;45.176;5.714;2023-02-01T17:12:24;2.73;;;2.13;;
10120;SDS011;5100;45.176;5.714;2023-02-01T17:14:56;3.57;;;2.30;;
10120;SDS011;5100;45.176;5.714;2023-02-01T17:17:23;2.60;;;2.33;;
10120;SDS011;5100;45.176;5.714;2023-02-01T17:19:52;2.17;;;1.87;;
10120;SDS011;5100;45.176;5.714;2023-02-01T17:22:19;3.33;;;2.20;;
10120;SDS011;5100;45.176;5.714;2023-02-01T17:24:45;2.57;;;2.30;;
10120;SDS011;5100;45.176;5.714;2023-02-01T17:27:13;2.57;;;2.30;;
10120;SDS011;5100;45.176;5.714;2023-02-01T17:29:40;3.80;;;2.40;;
10120;SDS011;5100;45.176;5.714;2023-02-01T17:32:21;2.90;;;2.37;;
10120;SDS011;5100;45.176;5.714;2023-02-01T17:34:50;3.17;;;2.57;;